Aviation Digital Data Service (ADDS)

Output produced by TAFs form (0919 UTC 31 July 2015)
found at http://aviationweather.gov/adds/tafs/
 
KFMN 310532Z 3106/0106 VRB06KT P6SM VCSH SCT050 OVC100 
     FM311100 16006KT P6SM SCT050 BKN090 
     FM312200 21008KT P6SM VCSH BKN090